sensor_id;sensor_type;location;lat;lon;timestamp;temperature;humidity
7784;DHT22;19359;51.402;6.778;2024-02-21T00:00:15;9.10;1.00
7784;DHT22;19359;51.402;6.778;2024-02-21T00:02:42;9.10;1.00
7784;DHT22;19359;51.402;6.778;2024-02-21T00:05:09;9.10;1.00
7784;DHT22;19359;51.402;6.778;2024-02-21T00:07:36;9.10;1.00
7784;DHT22;19359;51.402;6.778;2024-02-21T00:10:03;9.10;1.00
7784;DHT22;19359;51.402;6.778;2024-02-21T00:12:30;9.20;1.00
7784;DHT22;19359;51.402;6.778;2024-02-21T00:14:57;9.20;1.00
7784;DHT22;19359;51.402;6.778;2024-02-21T00:17:25;9.20;1.00
7784;DHT22;19359;51.402;6.778;2024-02-21T00:19:52;9.20;1.00
7784;DHT22;19359;51.402;6.778;2024-02-21T00:22:19;9.10;1.00
7784;DHT22;19359;51.402;6.778;2024-02-21T00:24:45;9.10;1.00
7784;DHT22;19359;51.402;6.778;2024-02-21T00:27:12;9.10;1.00
7784;DHT22;19359;51.402;6.778;2024-02-21T00:29:39;9.10;1.00
7784;DHT22;19359;51.402;6.778;2024-02-21T00:32:06;9.10;1.00
7784;DHT22;19359;51.402;6.778;2024-02-21T00:34:34;9.10;1.00
7784;DHT22;19359;51.402;6.778;2024-02-21T00:37:01;9.10;1.00
7784;DHT22;19359;51.402;6.778;2024-02-21T00:39:27;9.20;1.00
7784;DHT22;19359;51.402;6.778;2024-02-21T00:41:54;9.10;1.00
7784;DHT22;19359;51.402;6.778;2024-02-21T00:44:21;9.10;1.00
7784;DHT22;19359;51.402;6.778;2024-02-21T00:46:47;9.10;1.00
7784;DHT22;19359;51.402;6.778;2024-02-21T00:49:14;9.10;1.00
7784;DHT22;19359;51.402;6.778;2024-02-21T00:51:42;9.10;1.00
7784;DHT22;19359;51.402;6.778;2024-02-21T00:54:09;9.10;1.00
7784;DHT22;19359;51.402;6.778;2024-02-21T00:56:35;9.10;1.00
7784;DHT22;19359;51.402;6.778;2024-02-21T00:59:02;9.10;1.00
7784;DHT22;19359;51.402;6.778;2024-02-21T01:01:29;9.10;1.00
7784;DHT22;19359;51.402;6.778;2024-02-21T01:03:56;9.10;1.00
7784;DHT22;19359;51.402;6.778;2024-02-21T01:06:22;9.10;1.00
7784;DHT22;19359;51.402;6.778;2024-02-21T01:08:51;9.10;1.00
7784;DHT22;19359;51.402;6.778;2024-02-21T01:11:18;9.10;1.00
7784;DHT22;19359;51.402;6.778;2024-02-21T01:13:44;9.10;1.00
7784;DHT22;19359;51.402;6.778;2024-02-21T01:16:11;9.10;1.00
7784;DHT22;19359;51.402;6.778;2024-02-21T01:18:38;9.10;1.00
7784;DHT22;19359;51.402;6.778;2024-02-21T01:21:06;9.10;1.00
7784;DHT22;19359;51.402;6.778;2024-02-21T01:23:33;9.10;1.00
7784;DHT22;19359;51.402;6.778;2024-02-21T01:26:02;9.20;1.00
7784;DHT22;19359;51.402;6.778;2024-02-21T01:28:29;9.10;1.00
7784;DHT22;19359;51.402;6.778;2024-02-21T01:30:56;9.10;1.00
7784;DHT22;19359;51.402;6.778;2024-02-21T01:33:22;9.10;1.00
7784;DHT22;19359;51.402;6.778;2024-02-21T01:35:49;9.10;1.00
7784;DHT22;19359;51.402;6.778;2024-02-21T01:38:16;9.10;1.00
7784;DHT22;19359;51.402;6.778;2024-02-21T01:40:43;9.10;13.60
7784;DHT22;19359;51.402;6.778;2024-02-21T01:43:17;9.10;28.90
7784;DHT22;19359;51.402;6.778;2024-02-21T01:45:48;9.10;22.80
7784;DHT22;19359;51.402;6.778;2024-02-21T01:48:16;9.10;38.00
7784;DHT22;19359;51.402;6.778;2024-02-21T01:50:43;9.00;43.10
7784;DHT22;19359;51.402;6.778;2024-02-21T01:53:10;9.10;45.40
7784;DHT22;19359;51.402;6.778;2024-02-21T01:55:43;9.00;67.20
7784;DHT22;19359;51.402;6.778;2024-02-21T01:58:10;9.10;79.10
7784;DHT22;19359;51.402;6.778;2024-02-21T02:00:40;9.00;92.50
7784;DHT22;19359;51.402;6.778;2024-02-21T02:03:08;9.00;94.00
7784;DHT22;19359;51.402;6.778;2024-02-21T02:05:35;9.00;99.90
7784;DHT22;19359;51.402;6.778;2024-02-21T02:08:02;9.00;99.90
7784;DHT22;19359;51.402;6.778;2024-02-21T02:10:29;9.00;99.90
7784;DHT22;19359;51.402;6.778;2024-02-21T02:12:56;9.00;99.90
7784;DHT22;19359;51.402;6.778;2024-02-21T02:15:23;9.00;99.90
7784;DHT22;19359;51.402;6.778;2024-02-21T02:17:51;9.00;99.90
7784;DHT22;19359;51.402;6.778;2024-02-21T02:20:18;9.00;99.90
7784;DHT22;19359;51.402;6.778;2024-02-21T02:22:46;9.00;99.90
7784;DHT22;19359;51.402;6.778;2024-02-21T02:25:14;9.00;99.90
7784;DHT22;19359;51.402;6.778;2024-02-21T02:27:42;9.00;99.90
7784;DHT22;19359;51.402;6.778;2024-02-21T02:30:11;8.90;99.90
7784;DHT22;19359;51.402;6.778;2024-02-21T02:32:38;8.90;99.90
7784;DHT22;19359;51.402;6.778;2024-02-21T02:35:05;8.90;99.90
7784;DHT22;19359;51.402;6.778;2024-02-21T02:37:32;8.80;99.90
7784;DHT22;19359;51.402;6.778;2024-02-21T02:39:59;8.80;99.90
7784;DHT22;19359;51.402;6.778;2024-02-21T02:42:27;8.80;99.90
7784;DHT22;19359;51.402;6.778;2024-02-21T02:44:54;8.70;99.90
7784;DHT22;19359;51.402;6.778;2024-02-21T02:47:20;8.70;99.90
7784;DHT22;19359;51.402;6.778;2024-02-21T02:49:47;8.70;99.90
7784;DHT22;19359;51.402;6.778;2024-02-21T02:52:16;8.70;99.90
7784;DHT22;19359;51.402;6.778;2024-02-21T02:54:43;8.70;99.90
7784;DHT22;19359;51.402;6.778;2024-02-21T02:57:10;8.70;99.90
7784;DHT22;19359;51.402;6.778;2024-02-21T02:59:38;8.80;99.90
7784;DHT22;19359;51.402;6.778;2024-02-21T03:02:05;8.70;99.90
7784;DHT22;19359;51.402;6.778;2024-02-21T03:04:31;8.80;99.90
7784;DHT22;19359;51.402;6.778;2024-02-21T03:06:58;8.80;99.90
7784;DHT22;19359;51.402;6.778;2024-02-21T03:09:25;8.70;99.90
7784;DHT22;19359;51.402;6.778;2024-02-21T03:11:52;8.70;99.90
7784;DHT22;19359;51.402;6.778;2024-02-21T03:14:22;8.70;99.90
7784;DHT22;19359;51.402;6.778;2024-02-21T03:16:52;8.60;99.90
7784;DHT22;19359;51.402;6.778;2024-02-21T03:19:19;8.70;99.90
7784;DHT22;19359;51.402;6.778;2024-02-21T03:21:46;8.60;99.90
7784;DHT22;19359;51.402;6.778;2024-02-21T03:24:12;8.70;99.90
7784;DHT22;19359;51.402;6.778;2024-02-21T03:26:39;8.60;99.90
7784;DHT22;19359;51.402;6.778;2024-02-21T03:29:06;8.50;99.90
7784;DHT22;19359;51.402;6.778;2024-02-21T03:31:33;8.50;99.90
7784;DHT22;19359;51.402;6.778;2024-02-21T03:34:01;8.50;99.90
7784;DHT22;19359;51.402;6.778;2024-02-21T03:36:28;8.50;99.90
7784;DHT22;19359;51.402;6.778;2024-02-21T03:38:55;8.50;99.90
7784;DHT22;19359;51.402;6.778;2024-02-21T03:41:21;8.50;99.90
7784;DHT22;19359;51.402;6.778;2024-02-21T03:43:48;8.40;99.90
7784;DHT22;19359;51.402;6.778;2024-02-21T03:46:15;8.50;99.90
7784;DHT22;19359;51.402;6.778;2024-02-21T03:48:41;8.50;99.90
7784;DHT22;19359;51.402;6.778;2024-02-21T03:51:10;8.50;99.90
7784;DHT22;19359;51.402;6.778;2024-02-21T03:53:36;8.50;99.90
7784;DHT22;19359;51.402;6.778;2024-02-21T03:56:04;8.50;99.90
7784;DHT22;19359;51.402;6.778;2024-02-21T03:58:31;8.60;99.90
7784;DHT22;19359;51.402;6.778;2024-02-21T04:01:00;8.60;99.90
7784;DHT22;19359;51.402;6.778;2024-02-21T04:03:27;8.60;99.90
7784;DHT22;19359;51.402;6.778;2024-02-21T04:05:53;8.60;99.90
7784;DHT22;19359;51.402;6.778;2024-02-21T04:08:22;8.60;99.90
7784;DHT22;19359;51.402;6.778;2024-02-21T04:10:49;8.60;99.90
7784;DHT22;19359;51.402;6.778;2024-02-21T04:13:16;8.60;99.90
7784;DHT22;19359;51.402;6.778;2024-02-21T04:15:42;8.60;99.90
7784;DHT22;19359;51.402;6.778;2024-02-21T04:18:09;8.60;99.90
7784;DHT22;19359;51.402;6.778;2024-02-21T04:20:36;8.60;99.90
7784;DHT22;19359;51.402;6.778;2024-02-21T04:23:03;8.60;99.90
7784;DHT22;19359;51.402;6.778;2024-02-21T04:25:31;8.60;99.90
7784;DHT22;19359;51.402;6.778;2024-02-21T04:27:58;8.60;99.90
7784;DHT22;19359;51.402;6.778;2024-02-21T04:30:24;8.60;99.90
7784;DHT22;19359;51.402;6.778;2024-02-21T04:32:51;8.60;99.90
7784;DHT22;19359;51.402;6.778;2024-02-21T04:35:18;8.60;99.90
7784;DHT22;19359;51.402;6.778;2024-02-21T04:37:45;8.60;99.90
7784;DHT22;19359;51.402;6.778;2024-02-21T04:40:12;8.60;99.90
7784;DHT22;19359;51.402;6.778;2024-02-21T04:42:40;8.60;99.90
7784;DHT22;19359;51.402;6.778;2024-02-21T04:45:08;8.60;99.90
7784;DHT22;19359;51.402;6.778;2024-02-21T04:47:35;8.60;99.90
7784;DHT22;19359;51.402;6.778;2024-02-21T04:50:02;8.60;99.90
7784;DHT22;19359;51.402;6.778;2024-02-21T04:52:29;8.70;99.90
7784;DHT22;19359;51.402;6.778;2024-02-21T04:54:56;8.60;99.90
7784;DHT22;19359;51.402;6.778;2024-02-21T04:57:22;8.60;99.90
7784;DHT22;19359;51.402;6.778;2024-02-21T04:59:52;8.60;99.90
7784;DHT22;19359;51.402;6.778;2024-02-21T05:02:18;8.60;99.90
7784;DHT22;19359;51.402;6.778;2024-02-21T05:04:48;8.60;99.90
7784;DHT22;19359;51.402;6.778;2024-02-21T05:07:14;8.60;99.90
7784;DHT22;19359;51.402;6.778;2024-02-21T05:09:42;8.60;99.90
7784;DHT22;19359;51.402;6.778;2024-02-21T05:12:09;8.60;99.90
7784;DHT22;19359;51.402;6.778;2024-02-21T05:14:35;8.60;99.90
7784;DHT22;19359;51.402;6.778;2024-02-21T05:17:04;8.60;99.90
7784;DHT22;19359;51.402;6.778;2024-02-21T05:19:31;8.60;99.90
7784;DHT22;19359;51.402;6.778;2024-02-21T05:21:59;8.60;99.90
7784;DHT22;19359;51.402;6.778;2024-02-21T05:24:26;8.60;99.90
7784;DHT22;19359;51.402;6.778;2024-02-21T05:26:53;8.70;99.90
7784;DHT22;19359;51.402;6.778;2024-02-21T05:29:20;8.60;99.90
7784;DHT22;19359;51.402;6.778;2024-02-21T05:31:57;8.60;99.90
7784;DHT22;19359;51.402;6.778;2024-02-21T05:34:25;8.60;99.90
7784;DHT22;19359;51.402;6.778;2024-02-21T05:36:53;8.60;99.90
7784;DHT22;19359;51.402;6.778;2024-02-21T05:39:19;8.60;99.90
7784;DHT22;19359;51.402;6.778;2024-02-21T05:41:48;8.60;99.90
7784;DHT22;19359;51.402;6.778;2024-02-21T05:44:16;8.60;99.90
7784;DHT22;19359;51.402;6.778;2024-02-21T05:46:43;8.70;99.90
7784;DHT22;19359;51.402;6.778;2024-02-21T05:49:09;8.70;99.90
7784;DHT22;19359;51.402;6.778;2024-02-21T05:51:37;8.70;99.90
7784;DHT22;19359;51.402;6.778;2024-02-21T05:54:04;8.70;99.90
7784;DHT22;19359;51.402;6.778;2024-02-21T05:56:32;8.70;99.90
7784;DHT22;19359;51.402;6.778;2024-02-21T05:58:59;8.70;99.90
7784;DHT22;19359;51.402;6.778;2024-02-21T06:01:26;8.70;99.90
7784;DHT22;19359;51.402;6.778;2024-02-21T06:03:53;8.70;99.90
7784;DHT22;19359;51.402;6.778;2024-02-21T06:06:20;8.70;99.90
7784;DHT22;19359;51.402;6.778;2024-02-21T06:08:48;8.60;99.90
7784;DHT22;19359;51.402;6.778;2024-02-21T06:11:15;8.70;99.90
7784;DHT22;19359;51.402;6.778;2024-02-21T06:13:42;8.70;99.90
7784;DHT22;19359;51.402;6.778;2024-02-21T06:16:08;8.70;99.90
7784;DHT22;19359;51.402;6.778;2024-02-21T06:18:36;8.70;99.90
7784;DHT22;19359;51.402;6.778;2024-02-21T06:21:03;8.70;99.90
7784;DHT22;19359;51.402;6.778;2024-02-21T06:23:30;8.70;99.90
7784;DHT22;19359;51.402;6.778;2024-02-21T06:25:58;8.70;99.90
7784;DHT22;19359;51.402;6.778;2024-02-21T06:28:25;8.70;99.90
7784;DHT22;19359;51.402;6.778;2024-02-21T06:30:52;8.60;99.90
7784;DHT22;19359;51.402;6.778;2024-02-21T06:33:19;8.70;99.90
7784;DHT22;19359;51.402;6.778;2024-02-21T06:35:48;8.70;99.90
7784;DHT22;19359;51.402;6.778;2024-02-21T06:38:17;8.60;99.90
7784;DHT22;19359;51.402;6.778;2024-02-21T06:40:44;8.60;99.90
7784;DHT22;19359;51.402;6.778;2024-02-21T06:43:17;8.70;99.90
7784;DHT22;19359;51.402;6.778;2024-02-21T06:45:43;8.70;99.90
7784;DHT22;19359;51.402;6.778;2024-02-21T06:48:12;8.70;99.90
7784;DHT22;19359;51.402;6.778;2024-02-21T06:50:39;8.70;99.90
7784;DHT22;19359;51.402;6.778;2024-02-21T06:53:06;8.70;99.90
7784;DHT22;19359;51.402;6.778;2024-02-21T06:55:33;8.70;99.90
7784;DHT22;19359;51.402;6.778;2024-02-21T06:57:59;8.80;99.90
7784;DHT22;19359;51.402;6.778;2024-02-21T07:00:28;8.80;99.90
7784;DHT22;19359;51.402;6.778;2024-02-21T07:02:55;8.80;99.90
7784;DHT22;19359;51.402;6.778;2024-02-21T07:05:22;8.80;99.90
7784;DHT22;19359;51.402;6.778;2024-02-21T07:07:48;8.80;99.90
7784;DHT22;19359;51.402;6.778;2024-02-21T07:10:15;8.80;99.90
7784;DHT22;19359;51.402;6.778;2024-02-21T07:12:42;8.80;99.90
7784;DHT22;19359;51.402;6.778;2024-02-21T07:15:09;8.80;99.90
7784;DHT22;19359;51.402;6.778;2024-02-21T07:17:37;8.80;99.90
7784;DHT22;19359;51.402;6.778;2024-02-21T07:20:04;8.90;99.90
7784;DHT22;19359;51.402;6.778;2024-02-21T07:22:31;8.90;99.90
7784;DHT22;19359;51.402;6.778;2024-02-21T07:24:57;8.90;99.90
7784;DHT22;19359;51.402;6.778;2024-02-21T07:27:24;8.90;99.90
7784;DHT22;19359;51.402;6.778;2024-02-21T07:29:53;9.00;99.90
7784;DHT22;19359;51.402;6.778;2024-02-21T07:32:20;9.00;99.90
7784;DHT22;19359;51.402;6.778;2024-02-21T07:34:48;9.00;99.90
7784;DHT22;19359;51.402;6.778;2024-02-21T07:37:15;9.00;99.90
7784;DHT22;19359;51.402;6.778;2024-02-21T07:39:41;9.00;99.90
7784;DHT22;19359;51.402;6.778;2024-02-21T07:42:08;9.00;99.90
7784;DHT22;19359;51.402;6.778;2024-02-21T07:44:35;9.00;99.90
7784;DHT22;19359;51.402;6.778;2024-02-21T07:47:02;9.10;99.90
7784;DHT22;19359;51.402;6.778;2024-02-21T07:49:28;9.10;99.90
7784;DHT22;19359;51.402;6.778;2024-02-21T07:51:56;9.10;99.90
7784;DHT22;19359;51.402;6.778;2024-02-21T07:54:23;9.10;99.90
7784;DHT22;19359;51.402;6.778;2024-02-21T07:56:50;9.10;99.90
7784;DHT22;19359;51.402;6.778;2024-02-21T07:59:17;9.10;99.90
7784;DHT22;19359;51.402;6.778;2024-02-21T08:01:43;9.10;99.90
7784;DHT22;19359;51.402;6.778;2024-02-21T08:04:11;9.20;99.90
7784;DHT22;19359;51.402;6.778;2024-02-21T08:06:37;9.20;99.90
7784;DHT22;19359;51.402;6.778;2024-02-21T08:09:05;9.20;99.90
7784;DHT22;19359;51.402;6.778;2024-02-21T08:11:32;9.20;99.90
7784;DHT22;19359;51.402;6.778;2024-02-21T08:13:59;9.20;99.90
7784;DHT22;19359;51.402;6.778;2024-02-21T08:16:26;9.20;99.90
7784;DHT22;19359;51.402;6.778;2024-02-21T08:18:53;9.20;99.90
7784;DHT22;19359;51.402;6.778;2024-02-21T08:21:20;9.20;99.90
7784;DHT22;19359;51.402;6.778;2024-02-21T08:23:46;9.20;99.90
7784;DHT22;19359;51.402;6.778;2024-02-21T08:26:18;9.10;99.90
7784;DHT22;19359;51.402;6.778;2024-02-21T08:28:45;9.00;99.90
7784;DHT22;19359;51.402;6.778;2024-02-21T08:31:18;9.00;99.90
7784;DHT22;19359;51.402;6.778;2024-02-21T08:33:45;9.00;99.90
7784;DHT22;19359;51.402;6.778;2024-02-21T08:36:17;9.00;99.90
7784;DHT22;19359;51.402;6.778;2024-02-21T08:38:44;8.90;99.90
7784;DHT22;19359;51.402;6.778;2024-02-21T08:41:10;9.00;99.90
7784;DHT22;19359;51.402;6.778;2024-02-21T08:43:38;8.90;99.90
7784;DHT22;19359;51.402;6.778;2024-02-21T08:46:05;9.00;99.90
7784;DHT22;19359;51.402;6.778;2024-02-21T08:48:32;9.00;99.90
7784;DHT22;19359;51.402;6.778;2024-02-21T08:50:59;9.00;99.90
7784;DHT22;19359;51.402;6.778;2024-02-21T08:53:25;9.10;99.90
7784;DHT22;19359;51.402;6.778;2024-02-21T08:55:52;9.00;99.90
7784;DHT22;19359;51.402;6.778;2024-02-21T08:58:19;9.10;99.90
7784;DHT22;19359;51.402;6.778;2024-02-21T09:00:47;9.20;76.60
7784;DHT22;19359;51.402;6.778;2024-02-21T09:03:13;9.20;85.60
7784;DHT22;19359;51.402;6.778;2024-02-21T09:05:40;9.20;93.30
7784;DHT22;19359;51.402;6.778;2024-02-21T09:08:07;9.20;56.70
7784;DHT22;19359;51.402;6.778;2024-02-21T09:10:34;9.20;66.00
7784;DHT22;19359;51.402;6.778;2024-02-21T09:13:00;9.30;51.80
7784;DHT22;19359;51.402;6.778;2024-02-21T09:15:29;9.40;21.70
7784;DHT22;19359;51.402;6.778;2024-02-21T09:17:57;9.40;29.10
7784;DHT22;19359;51.402;6.778;2024-02-21T09:20:23;9.40;43.40
7784;DHT22;19359;51.402;6.778;2024-02-21T09:22:50;9.40;25.40
7784;DHT22;19359;51.402;6.778;2024-02-21T09:25:18;9.40;13.80
7784;DHT22;19359;51.402;6.778;2024-02-21T09:27:45;9.50;22.80
7784;DHT22;19359;51.402;6.778;2024-02-21T09:30:12;9.60;12.70
7784;DHT22;19359;51.402;6.778;2024-02-21T09:32:40;9.50;8.90
7784;DHT22;19359;51.402;6.778;2024-02-21T09:35:08;9.50;1.00
7784;DHT22;19359;51.402;6.778;2024-02-21T09:37:35;9.50;1.00
7784;DHT22;19359;51.402;6.778;2024-02-21T09:40:02;9.50;1.00
7784;DHT22;19359;51.402;6.778;2024-02-21T09:42:34;9.50;1.00
7784;DHT22;19359;51.402;6.778;2024-02-21T09:45:08;9.50;1.00
7784;DHT22;19359;51.402;6.778;2024-02-21T09:47:43;9.40;1.00
7784;DHT22;19359;51.402;6.778;2024-02-21T09:50:15;9.40;1.00
7784;DHT22;19359;51.402;6.778;2024-02-21T09:52:44;9.50;1.00
7784;DHT22;19359;51.402;6.778;2024-02-21T09:55:12;9.70;1.00
7784;DHT22;19359;51.402;6.778;2024-02-21T09:57:39;9.70;1.00
7784;DHT22;19359;51.402;6.778;2024-02-21T10:00:07;9.70;1.00
7784;DHT22;19359;51.402;6.778;2024-02-21T10:02:34;9.70;1.00
7784;DHT22;19359;51.402;6.778;2024-02-21T10:05:01;9.80;1.00
7784;DHT22;19359;51.402;6.778;2024-02-21T10:07:30;9.80;1.00
7784;DHT22;19359;51.402;6.778;2024-02-21T10:10:01;9.70;1.00
7784;DHT22;19359;51.402;6.778;2024-02-21T10:12:28;9.70;1.00
7784;DHT22;19359;51.402;6.778;2024-02-21T10:15:00;9.70;1.00
7784;DHT22;19359;51.402;6.778;2024-02-21T10:17:27;9.70;1.00
7784;DHT22;19359;51.402;6.778;2024-02-21T10:19:54;9.80;1.00
7784;DHT22;19359;51.402;6.778;2024-02-21T10:22:20;9.70;1.00
7784;DHT22;19359;51.402;6.778;2024-02-21T10:24:48;9.80;1.00
7784;DHT22;19359;51.402;6.778;2024-02-21T10:27:15;9.80;1.00
7784;DHT22;19359;51.402;6.778;2024-02-21T10:29:42;9.80;1.00
7784;DHT22;19359;51.402;6.778;2024-02-21T10:32:10;9.80;1.00
7784;DHT22;19359;51.402;6.778;2024-02-21T10:34:38;9.90;1.00
7784;DHT22;19359;51.402;6.778;2024-02-21T10:37:06;9.90;1.00
7784;DHT22;19359;51.402;6.778;2024-02-21T10:39:33;9.90;1.00
7784;DHT22;19359;51.402;6.778;2024-02-21T10:42:03;10.00;1.00
7784;DHT22;19359;51.402;6.778;2024-02-21T10:44:31;10.00;1.00
7784;DHT22;19359;51.402;6.778;2024-02-21T10:46:58;10.20;1.00
7784;DHT22;19359;51.402;6.778;2024-02-21T10:49:26;10.20;1.00
7784;DHT22;19359;51.402;6.778;2024-02-21T10:51:55;10.20;1.00
7784;DHT22;19359;51.402;6.778;2024-02-21T10:54:35;10.30;1.00
7784;DHT22;19359;51.402;6.778;2024-02-21T10:57:07;10.30;1.00
7784;DHT22;19359;51.402;6.778;2024-02-21T10:59:37;10.40;1.00
7784;DHT22;19359;51.402;6.778;2024-02-21T11:02:05;10.40;1.00
7784;DHT22;19359;51.402;6.778;2024-02-21T11:04:32;10.40;1.00
7784;DHT22;19359;51.402;6.778;2024-02-21T11:07:01;10.40;1.00
7784;DHT22;19359;51.402;6.778;2024-02-21T11:09:32;10.40;1.00
7784;DHT22;19359;51.402;6.778;2024-02-21T11:12:02;10.50;1.00
7784;DHT22;19359;51.402;6.778;2024-02-21T11:14:31;10.60;1.00
7784;DHT22;19359;51.402;6.778;2024-02-21T11:17:01;10.70;1.00
7784;DHT22;19359;51.402;6.778;2024-02-21T11:19:29;10.70;1.00
7784;DHT22;19359;51.402;6.778;2024-02-21T11:21:57;10.70;1.00
7784;DHT22;19359;51.402;6.778;2024-02-21T11:24:28;10.80;1.00
7784;DHT22;19359;51.402;6.778;2024-02-21T11:26:55;10.80;1.00
7784;DHT22;19359;51.402;6.778;2024-02-21T11:29:25;10.90;1.00
7784;DHT22;19359;51.402;6.778;2024-02-21T11:31:53;10.90;1.00
7784;DHT22;19359;51.402;6.778;2024-02-21T11:34:20;11.00;1.00
7784;DHT22;19359;51.402;6.778;2024-02-21T11:36:48;11.10;1.00
7784;DHT22;19359;51.402;6.778;2024-02-21T11:39:19;11.10;1.00
7784;DHT22;19359;51.402;6.778;2024-02-21T11:41:47;11.00;1.00
7784;DHT22;19359;51.402;6.778;2024-02-21T11:44:14;11.00;1.00
7784;DHT22;19359;51.402;6.778;2024-02-21T11:46:40;11.00;1.00
7784;DHT22;19359;51.402;6.778;2024-02-21T11:49:09;11.00;1.00
7784;DHT22;19359;51.402;6.778;2024-02-21T11:51:36;11.20;1.00
7784;DHT22;19359;51.402;6.778;2024-02-21T11:54:03;11.20;1.00
7784;DHT22;19359;51.402;6.778;2024-02-21T11:56:30;11.20;1.00
7784;DHT22;19359;51.402;6.778;2024-02-21T11:58:58;11.20;1.00
7784;DHT22;19359;51.402;6.778;2024-02-21T12:01:25;11.20;1.00
7784;DHT22;19359;51.402;6.778;2024-02-21T12:03:52;11.10;1.00
7784;DHT22;19359;51.402;6.778;2024-02-21T12:06:21;11.10;1.00
7784;DHT22;19359;51.402;6.778;2024-02-21T12:08:48;11.10;1.00
7784;DHT22;19359;51.402;6.778;2024-02-21T12:11:20;11.10;1.00
7784;DHT22;19359;51.402;6.778;2024-02-21T12:13:57;11.20;1.00
7784;DHT22;19359;51.402;6.778;2024-02-21T12:16:24;11.30;1.00
7784;DHT22;19359;51.402;6.778;2024-02-21T12:18:52;11.30;1.00
7784;DHT22;19359;51.402;6.778;2024-02-21T12:21:23;11.20;1.00
7784;DHT22;19359;51.402;6.778;2024-02-21T12:23:50;11.20;1.00
7784;DHT22;19359;51.402;6.778;2024-02-21T12:26:17;11.20;1.00
7784;DHT22;19359;51.402;6.778;2024-02-21T12:28:44;11.30;1.00
7784;DHT22;19359;51.402;6.778;2024-02-21T12:31:10;11.40;1.00
7784;DHT22;19359;51.402;6.778;2024-02-21T12:33:37;11.50;1.00
7784;DHT22;19359;51.402;6.778;2024-02-21T12:36:04;11.50;1.00
7784;DHT22;19359;51.402;6.778;2024-02-21T12:38:33;11.60;1.00
7784;DHT22;19359;51.402;6.778;2024-02-21T12:40:59;11.60;1.00
7784;DHT22;19359;51.402;6.778;2024-02-21T12:43:27;11.60;1.00
7784;DHT22;19359;51.402;6.778;2024-02-21T12:45:53;11.70;1.00
7784;DHT22;19359;51.402;6.778;2024-02-21T12:48:20;11.80;1.00
7784;DHT22;19359;51.402;6.778;2024-02-21T12:50:49;11.80;1.00
7784;DHT22;19359;51.402;6.778;2024-02-21T12:53:17;11.90;1.00
7784;DHT22;19359;51.402;6.778;2024-02-21T12:55:45;11.90;1.00
7784;DHT22;19359;51.402;6.778;2024-02-21T12:58:12;12.00;1.00
7784;DHT22;19359;51.402;6.778;2024-02-21T13:00:40;12.10;1.00
7784;DHT22;19359;51.402;6.778;2024-02-21T13:03:06;12.10;1.00
7784;DHT22;19359;51.402;6.778;2024-02-21T13:05:35;12.20;1.00
7784;DHT22;19359;51.402;6.778;2024-02-21T13:08:02;12.20;1.00
7784;DHT22;19359;51.402;6.778;2024-02-21T13:10:29;12.10;1.00
7784;DHT22;19359;51.402;6.778;2024-02-21T13:12:57;12.20;1.00
7784;DHT22;19359;51.402;6.778;2024-02-21T13:15:24;12.30;1.00
7784;DHT22;19359;51.402;6.778;2024-02-21T13:17:51;12.30;1.00
7784;DHT22;19359;51.402;6.778;2024-02-21T13:20:17;12.40;1.00
7784;DHT22;19359;51.402;6.778;2024-02-21T13:22:44;12.50;1.00
7784;DHT22;19359;51.402;6.778;2024-02-21T13:25:11;12.60;1.00
7784;DHT22;19359;51.402;6.778;2024-02-21T13:27:40;12.70;1.00
7784;DHT22;19359;51.402;6.778;2024-02-21T13:30:09;12.70;1.00
7784;DHT22;19359;51.402;6.778;2024-02-21T13:32:37;12.70;1.00
7784;DHT22;19359;51.402;6.778;2024-02-21T13:35:04;12.80;1.00
7784;DHT22;19359;51.402;6.778;2024-02-21T13:37:32;12.60;1.00
7784;DHT22;19359;51.402;6.778;2024-02-21T13:39:58;12.60;1.00
7784;DHT22;19359;51.402;6.778;2024-02-21T13:42:25;12.40;1.00
7784;DHT22;19359;51.402;6.778;2024-02-21T13:44:53;12.30;1.00
7784;DHT22;19359;51.402;6.778;2024-02-21T13:47:21;12.30;1.00
7784;DHT22;19359;51.402;6.778;2024-02-21T13:49:48;12.20;1.00
7784;DHT22;19359;51.402;6.778;2024-02-21T13:52:15;12.20;1.00
7784;DHT22;19359;51.402;6.778;2024-02-21T13:54:42;12.20;1.00
7784;DHT22;19359;51.402;6.778;2024-02-21T13:57:09;12.20;1.00
7784;DHT22;19359;51.402;6.778;2024-02-21T13:59:36;12.20;1.00
7784;DHT22;19359;51.402;6.778;2024-02-21T14:02:03;12.20;1.00
7784;DHT22;19359;51.402;6.778;2024-02-21T14:04:31;12.10;1.00
7784;DHT22;19359;51.402;6.778;2024-02-21T14:06:57;12.10;1.00
7784;DHT22;19359;51.402;6.778;2024-02-21T14:09:24;12.10;1.00
7784;DHT22;19359;51.402;6.778;2024-02-21T14:11:51;12.10;1.00
7784;DHT22;19359;51.402;6.778;2024-02-21T14:14:18;12.20;1.00
7784;DHT22;19359;51.402;6.778;2024-02-21T14:16:44;12.20;1.00
7784;DHT22;19359;51.402;6.778;2024-02-21T14:19:13;12.20;1.00
7784;DHT22;19359;51.402;6.778;2024-02-21T14:21:41;12.30;1.00
7784;DHT22;19359;51.402;6.778;2024-02-21T14:24:08;12.40;1.00
7784;DHT22;19359;51.402;6.778;2024-02-21T14:26:34;12.40;1.00
7784;DHT22;19359;51.402;6.778;2024-02-21T14:29:02;12.30;1.00
7784;DHT22;19359;51.402;6.778;2024-02-21T14:31:30;12.30;1.00
7784;DHT22;19359;51.402;6.778;2024-02-21T14:33:57;12.40;1.00
7784;DHT22;19359;51.402;6.778;2024-02-21T14:36:25;12.40;1.00
7784;DHT22;19359;51.402;6.778;2024-02-21T14:38:53;12.50;1.00
7784;DHT22;19359;51.402;6.778;2024-02-21T14:41:20;12.50;1.00
7784;DHT22;19359;51.402;6.778;2024-02-21T14:43:47;12.40;1.00
7784;DHT22;19359;51.402;6.778;2024-02-21T14:46:13;12.40;1.00
7784;DHT22;19359;51.402;6.778;2024-02-21T14:48:40;12.50;1.00
7784;DHT22;19359;51.402;6.778;2024-02-21T14:51:07;12.40;1.00
7784;DHT22;19359;51.402;6.778;2024-02-21T14:53:33;12.30;1.00
7784;DHT22;19359;51.402;6.778;2024-02-21T14:56:01;12.30;1.00
7784;DHT22;19359;51.402;6.778;2024-02-21T14:58:28;12.20;1.00
7784;DHT22;19359;51.402;6.778;2024-02-21T15:00:56;12.20;1.00
7784;DHT22;19359;51.402;6.778;2024-02-21T15:03:23;12.10;1.00
7784;DHT22;19359;51.402;6.778;2024-02-21T15:05:52;12.00;1.00
7784;DHT22;19359;51.402;6.778;2024-02-21T15:08:22;12.00;1.00
7784;DHT22;19359;51.402;6.778;2024-02-21T15:10:49;12.00;1.00
7784;DHT22;19359;51.402;6.778;2024-02-21T15:13:17;11.90;1.00
7784;DHT22;19359;51.402;6.778;2024-02-21T15:15:44;11.90;1.00
7784;DHT22;19359;51.402;6.778;2024-02-21T15:18:13;11.90;1.00
7784;DHT22;19359;51.402;6.778;2024-02-21T15:20:40;11.80;1.00
7784;DHT22;19359;51.402;6.778;2024-02-21T15:23:07;11.80;1.00
7784;DHT22;19359;51.402;6.778;2024-02-21T15:25:33;11.70;1.00
7784;DHT22;19359;51.402;6.778;2024-02-21T15:28:00;11.70;1.00
7784;DHT22;19359;51.402;6.778;2024-02-21T15:30:31;11.70;1.00
7784;DHT22;19359;51.402;6.778;2024-02-21T15:32:58;11.60;1.00
7784;DHT22;19359;51.402;6.778;2024-02-21T15:35:27;11.60;1.00
7784;DHT22;19359;51.402;6.778;2024-02-21T15:37:53;11.60;1.00
7784;DHT22;19359;51.402;6.778;2024-02-21T15:40:21;11.50;1.00
7784;DHT22;19359;51.402;6.778;2024-02-21T15:42:48;11.50;1.00
7784;DHT22;19359;51.402;6.778;2024-02-21T15:45:15;11.50;1.00
7784;DHT22;19359;51.402;6.778;2024-02-21T15:47:43;11.50;1.00
7784;DHT22;19359;51.402;6.778;2024-02-21T15:50:10;11.50;1.00
7784;DHT22;19359;51.402;6.778;2024-02-21T15:52:36;11.50;1.00
7784;DHT22;19359;51.402;6.778;2024-02-21T15:55:04;11.50;1.00
7784;DHT22;19359;51.402;6.778;2024-02-21T15:57:32;11.50;1.00
7784;DHT22;19359;51.402;6.778;2024-02-21T15:59:59;11.40;1.00
7784;DHT22;19359;51.402;6.778;2024-02-21T16:02:26;11.40;1.00
7784;DHT22;19359;51.402;6.778;2024-02-21T16:04:54;11.40;1.00